sensor_id;sensor_type;location;lat;lon;timestamp;P1;durP1;ratioP1;P2;durP2;ratioP2
80101;SDS011;69407;44.966;19.622;2023-06-01T00:00:29;15.30;;;8.40;;
80101;SDS011;69407;44.966;19.622;2023-06-01T00:02:55;15.40;;;9.05;;
80101;SDS011;69407;44.966;19.622;2023-06-01T00:05:20;15.13;;;8.75;;
80101;SDS011;69407;44.966;19.622;2023-06-01T00:07:46;13.00;;;7.28;;
80101;SDS011;69407;44.966;19.622;2023-06-01T00:10:12;14.98;;;8.60;;
80101;SDS011;69407;44.966;19.622;2023-06-01T00:12:37;12.32;;;8.27;;
80101;SDS011;69407;44.966;19.622;2023-06-01T00:15:03;12.05;;;7.43;;
80101;SDS011;69407;44.966;19.622;2023-06-01T00:17:29;13.60;;;7.82;;
80101;SDS011;69407;44.966;19.622;2023-06-01T00:19:55;11.45;;;7.72;;
80101;SDS011;69407;44.966;19.622;2023-06-01T00:22:21;12.23;;;7.78;;
80101;SDS011;69407;44.966;19.622;2023-06-01T00:24:49;12.23;;;7.03;;
80101;SDS011;69407;44.966;19.622;2023-06-01T00:27:15;10.65;;;7.30;;
80101;SDS011;69407;44.966;19.622;2023-06-01T00:29:40;11.20;;;6.65;;
80101;SDS011;69407;44.966;19.622;2023-06-01T00:32:06;10.90;;;7.30;;
80101;SDS011;69407;44.966;19.622;2023-06-01T00:34:32;12.73;;;7.57;;
80101;SDS011;69407;44.966;19.622;2023-06-01T00:36:57;12.00;;;7.70;;
80101;SDS011;69407;44.966;19.622;2023-06-01T00:39:23;11.25;;;7.07;;
80101;SDS011;69407;44.966;19.622;2023-06-01T00:41:48;11.85;;;7.32;;
80101;SDS011;69407;44.966;19.622;2023-06-01T00:44:14;11.40;;;6.47;;
80101;SDS011;69407;44.966;19.622;2023-06-01T00:46:39;11.63;;;6.20;;
80101;SDS011;69407;44.966;19.622;2023-06-01T00:49:05;14.23;;;7.15;;
80101;SDS011;69407;44.966;19.622;2023-06-01T00:51:32;12.05;;;6.25;;
80101;SDS011;69407;44.966;19.622;2023-06-01T00:53:57;9.77;;;6.40;;
80101;SDS011;69407;44.966;19.622;2023-06-01T00:56:24;11.70;;;6.30;;
80101;SDS011;69407;44.966;19.622;2023-06-01T00:58:51;10.65;;;6.63;;
80101;SDS011;69407;44.966;19.622;2023-06-01T01:01:17;12.02;;;7.00;;
80101;SDS011;69407;44.966;19.622;2023-06-01T01:03:48;9.23;;;5.97;;
80101;SDS011;69407;44.966;19.622;2023-06-01T01:06:59;11.10;;;6.28;;
80101;SDS011;69407;44.966;19.622;2023-06-01T01:12:17;11.07;;;6.90;;
80101;SDS011;69407;44.966;19.622;2023-06-01T01:18:04;9.35;;;6.38;;
80101;SDS011;69407;44.966;19.622;2023-06-01T01:20:37;12.95;;;6.63;;
80101;SDS011;69407;44.966;19.622;2023-06-01T01:31:11;13.90;;;7.80;;
80101;SDS011;69407;44.966;19.622;2023-06-01T01:33:41;12.70;;;7.13;;
80101;SDS011;69407;44.966;19.622;2023-06-01T01:36:07;12.68;;;6.32;;
80101;SDS011;69407;44.966;19.622;2023-06-01T01:38:35;13.40;;;7.22;;
80101;SDS011;69407;44.966;19.622;2023-06-01T01:41:02;17.38;;;7.35;;
80101;SDS011;69407;44.966;19.622;2023-06-01T01:43:27;11.98;;;6.55;;
80101;SDS011;69407;44.966;19.622;2023-06-01T01:46:40;12.02;;;6.95;;
80101;SDS011;69407;44.966;19.622;2023-06-01T01:51:49;12.40;;;6.97;;
80101;SDS011;69407;44.966;19.622;2023-06-01T01:54:19;11.95;;;6.78;;
80101;SDS011;69407;44.966;19.622;2023-06-01T01:56:46;13.18;;;7.55;;
80101;SDS011;69407;44.966;19.622;2023-06-01T01:59:14;14.20;;;7.57;;
80101;SDS011;69407;44.966;19.622;2023-06-01T02:01:40;12.80;;;7.70;;
80101;SDS011;69407;44.966;19.622;2023-06-01T02:04:09;16.20;;;8.80;;
80101;SDS011;69407;44.966;19.622;2023-06-01T02:06:35;19.08;;;8.35;;
80101;SDS011;69407;44.966;19.622;2023-06-01T02:09:01;17.75;;;8.48;;
80101;SDS011;69407;44.966;19.622;2023-06-01T02:11:31;17.67;;;7.97;;
80101;SDS011;69407;44.966;19.622;2023-06-01T02:13:57;13.48;;;8.35;;
80101;SDS011;69407;44.966;19.622;2023-06-01T02:16:22;15.85;;;8.00;;
80101;SDS011;69407;44.966;19.622;2023-06-01T02:18:48;12.70;;;7.75;;
80101;SDS011;69407;44.966;19.622;2023-06-01T02:21:14;13.18;;;7.35;;
80101;SDS011;69407;44.966;19.622;2023-06-01T02:23:40;12.70;;;7.18;;
80101;SDS011;69407;44.966;19.622;2023-06-01T02:26:07;13.77;;;6.93;;
80101;SDS011;69407;44.966;19.622;2023-06-01T02:28:33;15.60;;;6.95;;
80101;SDS011;69407;44.966;19.622;2023-06-01T02:30:59;12.48;;;7.80;;
80101;SDS011;69407;44.966;19.622;2023-06-01T02:33:24;13.32;;;7.00;;
80101;SDS011;69407;44.966;19.622;2023-06-01T02:35:50;14.60;;;6.22;;
80101;SDS011;69407;44.966;19.622;2023-06-01T02:38:16;12.15;;;7.28;;
80101;SDS011;69407;44.966;19.622;2023-06-01T02:40:41;14.50;;;7.70;;
80101;SDS011;69407;44.966;19.622;2023-06-01T02:43:07;11.15;;;6.15;;
80101;SDS011;69407;44.966;19.622;2023-06-01T02:45:33;10.68;;;6.63;;
80101;SDS011;69407;44.966;19.622;2023-06-01T02:47:58;9.25;;;6.25;;
80101;SDS011;69407;44.966;19.622;2023-06-01T02:50:24;12.88;;;6.22;;
80101;SDS011;69407;44.966;19.622;2023-06-01T02:52:50;12.77;;;6.40;;
80101;SDS011;69407;44.966;19.622;2023-06-01T02:55:16;20.05;;;7.82;;
80101;SDS011;69407;44.966;19.622;2023-06-01T02:57:44;17.30;;;7.25;;
80101;SDS011;69407;44.966;19.622;2023-06-01T03:03:19;11.05;;;6.57;;
80101;SDS011;69407;44.966;19.622;2023-06-01T03:05:44;11.65;;;6.45;;
80101;SDS011;69407;44.966;19.622;2023-06-01T03:08:09;13.85;;;6.60;;
80101;SDS011;69407;44.966;19.622;2023-06-01T03:10:35;16.00;;;7.15;;
80101;SDS011;69407;44.966;19.622;2023-06-01T03:13:01;8.95;;;5.95;;
80101;SDS011;69407;44.966;19.622;2023-06-01T03:15:26;11.02;;;6.05;;
80101;SDS011;69407;44.966;19.622;2023-06-01T03:17:54;9.48;;;6.22;;
80101;SDS011;69407;44.966;19.622;2023-06-01T03:20:20;12.07;;;6.70;;
80101;SDS011;69407;44.966;19.622;2023-06-01T03:22:46;13.93;;;6.70;;
80101;SDS011;69407;44.966;19.622;2023-06-01T03:25:11;10.50;;;6.25;;
80101;SDS011;69407;44.966;19.622;2023-06-01T03:27:41;14.70;;;7.63;;
80101;SDS011;69407;44.966;19.622;2023-06-01T03:30:07;12.07;;;6.55;;
80101;SDS011;69407;44.966;19.622;2023-06-01T03:32:37;13.95;;;7.90;;
80101;SDS011;69407;44.966;19.622;2023-06-01T03:35:03;16.23;;;6.80;;
80101;SDS011;69407;44.966;19.622;2023-06-01T03:37:29;13.63;;;7.47;;
80101;SDS011;69407;44.966;19.622;2023-06-01T03:39:54;15.27;;;6.82;;
80101;SDS011;69407;44.966;19.622;2023-06-01T03:42:20;12.13;;;6.93;;
80101;SDS011;69407;44.966;19.622;2023-06-01T03:44:46;11.60;;;6.22;;
80101;SDS011;69407;44.966;19.622;2023-06-01T03:47:11;12.40;;;6.72;;
80101;SDS011;69407;44.966;19.622;2023-06-01T03:49:39;12.88;;;6.82;;
80101;SDS011;69407;44.966;19.622;2023-06-01T03:52:04;18.05;;;7.25;;
80101;SDS011;69407;44.966;19.622;2023-06-01T03:54:30;17.48;;;6.43;;
80101;SDS011;69407;44.966;19.622;2023-06-01T03:56:56;12.05;;;6.60;;
80101;SDS011;69407;44.966;19.622;2023-06-01T03:59:22;15.50;;;7.47;;
80101;SDS011;69407;44.966;19.622;2023-06-01T04:01:48;12.13;;;6.95;;
80101;SDS011;69407;44.966;19.622;2023-06-01T04:04:14;16.48;;;9.50;;
80101;SDS011;69407;44.966;19.622;2023-06-01T04:06:42;17.05;;;9.85;;
80101;SDS011;69407;44.966;19.622;2023-06-01T04:09:10;22.30;;;10.57;;
80101;SDS011;69407;44.966;19.622;2023-06-01T04:11:36;19.42;;;7.50;;
80101;SDS011;69407;44.966;19.622;2023-06-01T04:14:01;15.52;;;7.45;;
80101;SDS011;69407;44.966;19.622;2023-06-01T04:16:27;13.60;;;6.25;;
80101;SDS011;69407;44.966;19.622;2023-06-01T04:18:53;12.55;;;7.07;;
80101;SDS011;69407;44.966;19.622;2023-06-01T04:21:21;12.75;;;6.30;;
80101;SDS011;69407;44.966;19.622;2023-06-01T04:23:47;11.82;;;6.85;;
80101;SDS011;69407;44.966;19.622;2023-06-01T04:26:14;12.55;;;6.65;;
80101;SDS011;69407;44.966;19.622;2023-06-01T04:28:40;16.75;;;8.25;;
80101;SDS011;69407;44.966;19.622;2023-06-01T04:31:12;10.70;;;6.18;;
80101;SDS011;69407;44.966;19.622;2023-06-01T04:33:44;11.95;;;6.90;;
80101;SDS011;69407;44.966;19.622;2023-06-01T04:36:13;11.73;;;6.22;;
80101;SDS011;69407;44.966;19.622;2023-06-01T04:38:42;12.60;;;7.47;;
80101;SDS011;69407;44.966;19.622;2023-06-01T04:41:08;11.65;;;6.72;;
80101;SDS011;69407;44.966;19.622;2023-06-01T04:43:35;11.98;;;7.03;;
80101;SDS011;69407;44.966;19.622;2023-06-01T04:46:04;12.35;;;6.75;;
80101;SDS011;69407;44.966;19.622;2023-06-01T04:48:30;12.85;;;7.28;;
80101;SDS011;69407;44.966;19.622;2023-06-01T04:50:57;14.23;;;7.22;;
80101;SDS011;69407;44.966;19.622;2023-06-01T04:53:24;12.45;;;7.35;;
80101;SDS011;69407;44.966;19.622;2023-06-01T04:55:51;13.68;;;7.45;;
80101;SDS011;69407;44.966;19.622;2023-06-01T04:58:17;18.05;;;7.13;;
80101;SDS011;69407;44.966;19.622;2023-06-01T05:00:42;16.15;;;8.23;;
80101;SDS011;69407;44.966;19.622;2023-06-01T05:03:08;12.05;;;7.20;;
80101;SDS011;69407;44.966;19.622;2023-06-01T05:05:33;13.70;;;8.20;;
80101;SDS011;69407;44.966;19.622;2023-06-01T05:07:59;12.15;;;7.32;;
80101;SDS011;69407;44.966;19.622;2023-06-01T05:10:24;10.68;;;6.57;;
80101;SDS011;69407;44.966;19.622;2023-06-01T05:12:50;11.85;;;7.43;;
80101;SDS011;69407;44.966;19.622;2023-06-01T05:15:15;11.85;;;7.53;;
80101;SDS011;69407;44.966;19.622;2023-06-01T05:17:41;10.73;;;7.15;;
80101;SDS011;69407;44.966;19.622;2023-06-01T05:20:08;10.65;;;6.90;;
80101;SDS011;69407;44.966;19.622;2023-06-01T05:22:34;10.95;;;6.88;;
80101;SDS011;69407;44.966;19.622;2023-06-01T05:25:01;11.63;;;5.45;;
80101;SDS011;69407;44.966;19.622;2023-06-01T05:27:27;13.57;;;6.50;;
80101;SDS011;69407;44.966;19.622;2023-06-01T05:29:52;9.32;;;4.68;;
80101;SDS011;69407;44.966;19.622;2023-06-01T05:32:18;9.27;;;5.32;;
80101;SDS011;69407;44.966;19.622;2023-06-01T05:34:43;10.15;;;5.28;;
80101;SDS011;69407;44.966;19.622;2023-06-01T05:37:09;10.00;;;5.10;;
80101;SDS011;69407;44.966;19.622;2023-06-01T05:39:35;10.00;;;5.65;;
80101;SDS011;69407;44.966;19.622;2023-06-01T05:42:00;8.60;;;5.45;;
80101;SDS011;69407;44.966;19.622;2023-06-01T05:44:26;9.43;;;5.35;;
80101;SDS011;69407;44.966;19.622;2023-06-01T05:46:51;10.63;;;5.85;;
80101;SDS011;69407;44.966;19.622;2023-06-01T05:49:18;11.60;;;5.22;;
80101;SDS011;69407;44.966;19.622;2023-06-01T05:51:43;14.02;;;5.40;;
80101;SDS011;69407;44.966;19.622;2023-06-01T05:54:11;9.43;;;5.82;;
80101;SDS011;69407;44.966;19.622;2023-06-01T05:56:36;10.35;;;5.60;;
80101;SDS011;69407;44.966;19.622;2023-06-01T05:59:02;9.45;;;5.68;;
80101;SDS011;69407;44.966;19.622;2023-06-01T06:01:28;9.25;;;5.35;;
80101;SDS011;69407;44.966;19.622;2023-06-01T06:03:55;9.52;;;5.65;;
80101;SDS011;69407;44.966;19.622;2023-06-01T06:06:21;10.75;;;6.15;;
80101;SDS011;69407;44.966;19.622;2023-06-01T06:08:47;9.98;;;5.35;;
80101;SDS011;69407;44.966;19.622;2023-06-01T06:11:13;13.45;;;5.70;;
80101;SDS011;69407;44.966;19.622;2023-06-01T06:13:38;8.90;;;5.53;;
80101;SDS011;69407;44.966;19.622;2023-06-01T06:16:04;10.63;;;5.95;;
80101;SDS011;69407;44.966;19.622;2023-06-01T06:18:29;10.43;;;5.75;;
80101;SDS011;69407;44.966;19.622;2023-06-01T06:20:55;10.40;;;6.03;;
80101;SDS011;69407;44.966;19.622;2023-06-01T06:23:20;10.52;;;6.10;;
80101;SDS011;69407;44.966;19.622;2023-06-01T06:25:46;14.30;;;6.43;;
80101;SDS011;69407;44.966;19.622;2023-06-01T06:28:13;9.43;;;6.38;;
80101;SDS011;69407;44.966;19.622;2023-06-01T06:30:38;10.95;;;5.63;;
80101;SDS011;69407;44.966;19.622;2023-06-01T06:33:04;10.65;;;5.47;;
80101;SDS011;69407;44.966;19.622;2023-06-01T06:35:30;9.40;;;5.65;;
80101;SDS011;69407;44.966;19.622;2023-06-01T06:37:55;10.43;;;5.15;;
80101;SDS011;69407;44.966;19.622;2023-06-01T06:40:21;10.25;;;5.75;;
80101;SDS011;69407;44.966;19.622;2023-06-01T06:42:46;7.07;;;5.22;;
80101;SDS011;69407;44.966;19.622;2023-06-01T06:45:12;10.00;;;4.88;;
80101;SDS011;69407;44.966;19.622;2023-06-01T06:47:38;7.68;;;5.55;;
80101;SDS011;69407;44.966;19.622;2023-06-01T06:50:04;8.52;;;5.50;;
80101;SDS011;69407;44.966;19.622;2023-06-01T06:52:29;10.18;;;4.82;;
80101;SDS011;69407;44.966;19.622;2023-06-01T06:54:55;8.88;;;5.45;;
80101;SDS011;69407;44.966;19.622;2023-06-01T06:57:21;9.77;;;5.15;;
80101;SDS011;69407;44.966;19.622;2023-06-01T06:59:47;10.48;;;6.20;;
80101;SDS011;69407;44.966;19.622;2023-06-01T07:02:12;8.30;;;5.55;;
80101;SDS011;69407;44.966;19.622;2023-06-01T07:04:38;9.13;;;5.90;;
80101;SDS011;69407;44.966;19.622;2023-06-01T07:07:04;10.40;;;5.78;;
80101;SDS011;69407;44.966;19.622;2023-06-01T07:09:30;12.38;;;6.10;;
80101;SDS011;69407;44.966;19.622;2023-06-01T07:11:56;11.93;;;6.30;;
80101;SDS011;69407;44.966;19.622;2023-06-01T07:14:22;10.73;;;6.03;;
80101;SDS011;69407;44.966;19.622;2023-06-01T07:16:47;9.38;;;6.35;;
80101;SDS011;69407;44.966;19.622;2023-06-01T07:19:13;9.77;;;6.25;;
80101;SDS011;69407;44.966;19.622;2023-06-01T07:21:38;9.75;;;5.90;;
80101;SDS011;69407;44.966;19.622;2023-06-01T07:24:04;7.43;;;5.25;;
80101;SDS011;69407;44.966;19.622;2023-06-01T07:26:30;8.52;;;5.75;;
80101;SDS011;69407;44.966;19.622;2023-06-01T07:28:56;10.77;;;6.35;;
80101;SDS011;69407;44.966;19.622;2023-06-01T07:31:22;7.90;;;5.45;;
80101;SDS011;69407;44.966;19.622;2023-06-01T07:33:48;11.00;;;6.80;;
80101;SDS011;69407;44.966;19.622;2023-06-01T07:36:13;10.10;;;6.47;;
80101;SDS011;69407;44.966;19.622;2023-06-01T07:38:39;11.98;;;6.47;;
80101;SDS011;69407;44.966;19.622;2023-06-01T07:41:05;10.77;;;6.20;;
80101;SDS011;69407;44.966;19.622;2023-06-01T07:43:31;9.85;;;6.05;;
80101;SDS011;69407;44.966;19.622;2023-06-01T07:45:56;10.18;;;6.47;;
80101;SDS011;69407;44.966;19.622;2023-06-01T07:48:22;9.50;;;5.82;;
80101;SDS011;69407;44.966;19.622;2023-06-01T07:50:48;8.48;;;5.50;;
80101;SDS011;69407;44.966;19.622;2023-06-01T07:53:15;10.05;;;5.90;;
80101;SDS011;69407;44.966;19.622;2023-06-01T07:55:42;9.10;;;5.07;;
80101;SDS011;69407;44.966;19.622;2023-06-01T07:58:08;8.07;;;5.80;;
80101;SDS011;69407;44.966;19.622;2023-06-01T08:00:34;11.70;;;7.10;;
80101;SDS011;69407;44.966;19.622;2023-06-01T08:03:01;9.48;;;6.05;;
80101;SDS011;69407;44.966;19.622;2023-06-01T08:05:34;8.00;;;5.43;;
80101;SDS011;69407;44.966;19.622;2023-06-01T08:08:01;9.30;;;6.82;;
80101;SDS011;69407;44.966;19.622;2023-06-01T08:10:26;10.32;;;6.82;;
80101;SDS011;69407;44.966;19.622;2023-06-01T08:12:52;11.70;;;7.22;;
80101;SDS011;69407;44.966;19.622;2023-06-01T08:15:21;10.13;;;6.47;;
80101;SDS011;69407;44.966;19.622;2023-06-01T08:17:48;9.27;;;6.40;;
80101;SDS011;69407;44.966;19.622;2023-06-01T08:20:15;10.40;;;6.57;;
80101;SDS011;69407;44.966;19.622;2023-06-01T08:22:46;10.35;;;6.65;;
80101;SDS011;69407;44.966;19.622;2023-06-01T08:25:12;9.52;;;6.28;;
80101;SDS011;69407;44.966;19.622;2023-06-01T08:27:39;15.80;;;7.65;;
80101;SDS011;69407;44.966;19.622;2023-06-01T08:30:06;10.55;;;6.60;;
80101;SDS011;69407;44.966;19.622;2023-06-01T08:32:32;10.55;;;6.85;;
80101;SDS011;69407;44.966;19.622;2023-06-01T08:34:57;10.50;;;6.82;;
80101;SDS011;69407;44.966;19.622;2023-06-01T08:37:23;11.40;;;7.03;;
80101;SDS011;69407;44.966;19.622;2023-06-01T08:39:49;10.20;;;6.50;;
80101;SDS011;69407;44.966;19.622;2023-06-01T08:44:51;15.18;;;6.65;;
80101;SDS011;69407;44.966;19.622;2023-06-01T08:47:19;9.38;;;7.10;;
80101;SDS011;69407;44.966;19.622;2023-06-01T08:49:45;10.73;;;6.90;;
80101;SDS011;69407;44.966;19.622;2023-06-01T08:52:12;9.60;;;6.78;;
80101;SDS011;69407;44.966;19.622;2023-06-01T08:54:39;11.02;;;6.72;;
80101;SDS011;69407;44.966;19.622;2023-06-01T08:57:05;10.68;;;6.82;;
80101;SDS011;69407;44.966;19.622;2023-06-01T08:59:33;10.68;;;7.22;;
80101;SDS011;69407;44.966;19.622;2023-06-01T09:01:59;10.70;;;6.28;;
80101;SDS011;69407;44.966;19.622;2023-06-01T09:04:28;11.10;;;7.63;;
80101;SDS011;69407;44.966;19.622;2023-06-01T09:06:56;10.10;;;7.85;;
80101;SDS011;69407;44.966;19.622;2023-06-01T09:09:22;10.00;;;7.00;;
80101;SDS011;69407;44.966;19.622;2023-06-01T09:11:48;9.45;;;6.85;;
80101;SDS011;69407;44.966;19.622;2023-06-01T09:14:20;15.45;;;8.23;;
80101;SDS011;69407;44.966;19.622;2023-06-01T09:16:47;10.95;;;7.13;;
80101;SDS011;69407;44.966;19.622;2023-06-01T09:19:13;10.02;;;7.50;;
80101;SDS011;69407;44.966;19.622;2023-06-01T09:21:39;10.90;;;7.15;;
80101;SDS011;69407;44.966;19.622;2023-06-01T09:24:17;10.55;;;7.82;;
80101;SDS011;69407;44.966;19.622;2023-06-01T09:26:47;10.95;;;8.57;;
80101;SDS011;69407;44.966;19.622;2023-06-01T09:29:13;9.80;;;7.03;;
80101;SDS011;69407;44.966;19.622;2023-06-01T09:31:42;11.20;;;7.93;;
80101;SDS011;69407;44.966;19.622;2023-06-01T09:34:10;11.00;;;7.88;;
80101;SDS011;69407;44.966;19.622;2023-06-01T09:36:49;12.73;;;8.85;;
80101;SDS011;69407;44.966;19.622;2023-06-01T09:39:17;11.70;;;8.25;;
80101;SDS011;69407;44.966;19.622;2023-06-01T09:44:35;10.25;;;7.72;;
80101;SDS011;69407;44.966;19.622;2023-06-01T09:49:40;12.05;;;7.35;;
80101;SDS011;69407;44.966;19.622;2023-06-01T09:56:58;11.23;;;8.35;;
80101;SDS011;69407;44.966;19.622;2023-06-01T09:59:25;8.82;;;7.65;;
80101;SDS011;69407;44.966;19.622;2023-06-01T10:01:54;9.35;;;7.10;;
80101;SDS011;69407;44.966;19.622;2023-06-01T10:04:24;10.48;;;7.05;;
80101;SDS011;69407;44.966;19.622;2023-06-01T10:06:52;10.75;;;7.82;;
80101;SDS011;69407;44.966;19.622;2023-06-01T10:09:23;7.60;;;6.13;;
80101;SDS011;69407;44.966;19.622;2023-06-01T10:11:51;9.48;;;6.53;;
80101;SDS011;69407;44.966;19.622;2023-06-01T10:14:19;8.23;;;6.90;;
80101;SDS011;69407;44.966;19.622;2023-06-01T10:16:47;9.15;;;6.60;;
80101;SDS011;69407;44.966;19.622;2023-06-01T10:19:14;10.27;;;6.47;;
80101;SDS011;69407;44.966;19.622;2023-06-01T10:21:39;8.95;;;6.47;;
80101;SDS011;69407;44.966;19.622;2023-06-01T10:24:05;8.10;;;6.95;;
80101;SDS011;69407;44.966;19.622;2023-06-01T10:29:39;11.60;;;7.20;;
80101;SDS011;69407;44.966;19.622;2023-06-01T10:32:40;8.68;;;6.50;;
80101;SDS011;69407;44.966;19.622;2023-06-01T10:35:57;8.32;;;7.30;;
80101;SDS011;69407;44.966;19.622;2023-06-01T10:40:35;12.80;;;7.18;;
80101;SDS011;69407;44.966;19.622;2023-06-01T10:43:04;8.38;;;7.15;;
80101;SDS011;69407;44.966;19.622;2023-06-01T10:48:00;9.80;;;6.75;;
80101;SDS011;69407;44.966;19.622;2023-06-01T10:50:29;11.02;;;7.00;;
80101;SDS011;69407;44.966;19.622;2023-06-01T10:52:55;8.63;;;6.53;;
80101;SDS011;69407;44.966;19.622;2023-06-01T10:55:26;8.55;;;6.43;;
80101;SDS011;69407;44.966;19.622;2023-06-01T10:58:18;10.68;;;6.55;;
80101;SDS011;69407;44.966;19.622;2023-06-01T11:00:51;7.82;;;5.82;;
80101;SDS011;69407;44.966;19.622;2023-06-01T11:03:41;8.40;;;5.43;;
80101;SDS011;69407;44.966;19.622;2023-06-01T11:06:22;10.80;;;5.70;;
80101;SDS011;69407;44.966;19.622;2023-06-01T11:08:55;7.30;;;5.15;;
80101;SDS011;69407;44.966;19.622;2023-06-01T11:11:22;6.65;;;5.18;;
80101;SDS011;69407;44.966;19.622;2023-06-01T11:14:05;9.48;;;6.97;;
80101;SDS011;69407;44.966;19.622;2023-06-01T11:16:33;6.00;;;5.40;;
80101;SDS011;69407;44.966;19.622;2023-06-01T11:18:59;5.55;;;4.85;;
80101;SDS011;69407;44.966;19.622;2023-06-01T11:21:35;8.65;;;5.05;;
80101;SDS011;69407;44.966;19.622;2023-06-01T11:24:12;6.10;;;4.72;;
80101;SDS011;69407;44.966;19.622;2023-06-01T11:26:42;6.47;;;5.63;;
80101;SDS011;69407;44.966;19.622;2023-06-01T11:29:11;11.95;;;8.60;;
80101;SDS011;69407;44.966;19.622;2023-06-01T11:31:42;13.30;;;8.25;;
80101;SDS011;69407;44.966;19.622;2023-06-01T11:34:08;13.57;;;8.40;;
80101;SDS011;69407;44.966;19.622;2023-06-01T11:36:35;13.23;;;8.07;;
80101;SDS011;69407;44.966;19.622;2023-06-01T11:39:05;10.52;;;7.35;;
80101;SDS011;69407;44.966;19.622;2023-06-01T11:41:35;13.40;;;7.55;;
80101;SDS011;69407;44.966;19.622;2023-06-01T11:44:01;9.32;;;7.28;;
80101;SDS011;69407;44.966;19.622;2023-06-01T11:46:27;10.35;;;7.32;;
80101;SDS011;69407;44.966;19.622;2023-06-01T11:49:03;9.23;;;7.40;;
80101;SDS011;69407;44.966;19.622;2023-06-01T11:51:38;9.73;;;6.72;;
80101;SDS011;69407;44.966;19.622;2023-06-01T11:54:04;9.52;;;7.32;;
80101;SDS011;69407;44.966;19.622;2023-06-01T11:56:30;11.23;;;6.35;;
80101;SDS011;69407;44.966;19.622;2023-06-01T11:58:58;10.02;;;6.47;;
80101;SDS011;69407;44.966;19.622;2023-06-01T12:01:33;8.40;;;6.40;;
80101;SDS011;69407;44.966;19.622;2023-06-01T12:04:02;7.93;;;6.57;;
80101;SDS011;69407;44.966;19.622;2023-06-01T12:06:29;10.55;;;6.88;;
80101;SDS011;69407;44.966;19.622;2023-06-01T12:08:56;8.65;;;6.32;;
80101;SDS011;69407;44.966;19.622;2023-06-01T12:11:24;7.32;;;5.65;;
80101;SDS011;69407;44.966;19.622;2023-06-01T12:13:52;9.73;;;6.55;;
80101;SDS011;69407;44.966;19.622;2023-06-01T12:16:21;7.28;;;5.25;;
80101;SDS011;69407;44.966;19.622;2023-06-01T12:18:47;7.85;;;6.10;;
80101;SDS011;69407;44.966;19.622;2023-06-01T12:21:12;6.35;;;5.30;;
80101;SDS011;69407;44.966;19.622;2023-06-01T12:23:39;7.70;;;6.43;;
80101;SDS011;69407;44.966;19.622;2023-06-01T12:26:05;7.93;;;6.10;;
80101;SDS011;69407;44.966;19.622;2023-06-01T12:28:50;10.18;;;6.97;;
80101;SDS011;69407;44.966;19.622;2023-06-01T12:31:21;9.80;;;5.93;;
80101;SDS011;69407;44.966;19.622;2023-06-01T12:33:47;8.20;;;6.38;;
80101;SDS011;69407;44.966;19.622;2023-06-01T12:39:13;7.63;;;5.75;;
80101;SDS011;69407;44.966;19.622;2023-06-01T12:41:48;6.40;;;5.38;;
80101;SDS011;69407;44.966;19.622;2023-06-01T12:44:19;8.90;;;5.18;;
80101;SDS011;69407;44.966;19.622;2023-06-01T12:46:45;6.03;;;4.55;;
80101;SDS011;69407;44.966;19.622;2023-06-01T12:49:11;6.88;;;5.60;;
80101;SDS011;69407;44.966;19.622;2023-06-01T12:51:38;7.53;;;5.60;;
80101;SDS011;69407;44.966;19.622;2023-06-01T12:54:04;8.68;;;5.45;;
80101;SDS011;69407;44.966;19.622;2023-06-01T12:56:29;7.85;;;5.45;;
80101;SDS011;69407;44.966;19.622;2023-06-01T12:58:55;6.10;;;4.85;;
80101;SDS011;69407;44.966;19.622;2023-06-01T13:01:21;8.02;;;5.40;;
80101;SDS011;69407;44.966;19.622;2023-06-01T13:03:46;8.73;;;4.45;;
80101;SDS011;69407;44.966;19.622;2023-06-01T13:06:12;6.53;;;4.57;;
80101;SDS011;69407;44.966;19.622;2023-06-01T13:08:41;5.80;;;4.43;;
80101;SDS011;69407;44.966;19.622;2023-06-01T13:11:07;4.65;;;4.03;;
80101;SDS011;69407;44.966;19.622;2023-06-01T13:13:32;6.47;;;4.20;;
80101;SDS011;69407;44.966;19.622;2023-06-01T13:15:58;7.63;;;5.00;;
80101;SDS011;69407;44.966;19.622;2023-06-01T13:18:23;6.38;;;4.75;;
80101;SDS011;69407;44.966;19.622;2023-06-01T13:20:49;7.15;;;3.95;;
80101;SDS011;69407;44.966;19.622;2023-06-01T13:23:15;7.57;;;5.35;;
80101;SDS011;69407;44.966;19.622;2023-06-01T13:25:42;6.82;;;4.65;;
80101;SDS011;69407;44.966;19.622;2023-06-01T13:28:07;7.38;;;5.18;;
80101;SDS011;69407;44.966;19.622;2023-06-01T13:30:33;7.68;;;5.00;;
80101;SDS011;69407;44.966;19.622;2023-06-01T13:32:59;12.43;;;5.30;;
80101;SDS011;69407;44.966;19.622;2023-06-01T13:35:25;9.30;;;5.68;;
80101;SDS011;69407;44.966;19.622;2023-06-01T13:37:51;5.55;;;4.72;;
80101;SDS011;69407;44.966;19.622;2023-06-01T13:40:17;7.90;;;5.30;;
80101;SDS011;69407;44.966;19.622;2023-06-01T13:42:44;8.20;;;5.45;;
80101;SDS011;69407;44.966;19.622;2023-06-01T13:45:10;6.00;;;4.88;;
80101;SDS011;69407;44.966;19.622;2023-06-01T13:47:36;9.65;;;6.07;;
80101;SDS011;69407;44.966;19.622;2023-06-01T13:50:02;7.80;;;5.60;;
80101;SDS011;69407;44.966;19.622;2023-06-01T13:52:29;7.90;;;6.10;;
80101;SDS011;69407;44.966;19.622;2023-06-01T13:54:55;8.77;;;6.22;;
80101;SDS011;69407;44.966;19.622;2023-06-01T13:57:21;11.63;;;7.53;;
80101;SDS011;69407;44.966;19.622;2023-06-01T13:59:47;11.48;;;6.90;;
80101;SDS011;69407;44.966;19.622;2023-06-01T14:02:13;9.50;;;7.45;;
80101;SDS011;69407;44.966;19.622;2023-06-01T14:04:38;7.82;;;5.30;;
80101;SDS011;69407;44.966;19.622;2023-06-01T14:07:08;8.55;;;5.13;;
80101;SDS011;69407;44.966;19.622;2023-06-01T14:09:36;8.88;;;4.97;;
80101;SDS011;69407;44.966;19.622;2023-06-01T14:12:02;8.15;;;5.32;;
80101;SDS011;69407;44.966;19.622;2023-06-01T14:14:32;6.18;;;5.05;;
80101;SDS011;69407;44.966;19.622;2023-06-01T14:16:58;6.70;;;5.60;;
80101;SDS011;69407;44.966;19.622;2023-06-01T14:19:36;6.22;;;5.20;;
80101;SDS011;69407;44.966;19.622;2023-06-01T14:22:01;6.30;;;4.90;;
80101;SDS011;69407;44.966;19.622;2023-06-01T14:24:27;6.60;;;5.05;;
80101;SDS011;69407;44.966;19.622;2023-06-01T14:26:52;9.75;;;5.38;;
80101;SDS011;69407;44.966;19.622;2023-06-01T14:29:18;8.05;;;5.35;;
80101;SDS011;69407;44.966;19.622;2023-06-01T14:31:45;7.30;;;5.78;;
80101;SDS011;69407;44.966;19.622;2023-06-01T14:34:10;7.00;;;5.38;;
80101;SDS011;69407;44.966;19.622;2023-06-01T14:36:36;6.85;;;5.57;;
80101;SDS011;69407;44.966;19.622;2023-06-01T14:39:01;8.35;;;5.78;;
80101;SDS011;69407;44.966;19.622;2023-06-01T14:41:27;10.05;;;5.72;;
80101;SDS011;69407;44.966;19.622;2023-06-01T14:43:52;9.77;;;5.15;;
80101;SDS011;69407;44.966;19.622;2023-06-01T14:46:18;9.27;;;5.78;;
80101;SDS011;69407;44.966;19.622;2023-06-01T14:48:45;7.20;;;5.22;;
80101;SDS011;69407;44.966;19.622;2023-06-01T14:51:11;7.53;;;5.38;;
80101;SDS011;69407;44.966;19.622;2023-06-01T14:53:37;8.50;;;4.43;;
80101;SDS011;69407;44.966;19.622;2023-06-01T14:56:04;5.90;;;5.15;;
80101;SDS011;69407;44.966;19.622;2023-06-01T14:58:31;9.60;;;5.32;;
80101;SDS011;69407;44.966;19.622;2023-06-01T15:00:56;6.47;;;5.63;;
80101;SDS011;69407;44.966;19.622;2023-06-01T15:03:23;5.88;;;5.05;;
80101;SDS011;69407;44.966;19.622;2023-06-01T15:05:48;6.82;;;4.75;;
80101;SDS011;69407;44.966;19.622;2023-06-01T15:08:15;7.15;;;5.28;;
80101;SDS011;69407;44.966;19.622;2023-06-01T15:10:40;8.43;;;5.28;;